createdAt,value
2023-01-20T00:01:26.878Z,92453.03
2023-01-20T00:03:56.450Z,92447.25
2023-01-20T00:06:28.025Z,92466.97
2023-01-20T00:08:57.821Z,92479.91
2023-01-20T00:11:25.395Z,92493.50
2023-01-20T00:13:58.041Z,92489.50
2023-01-20T00:16:26.828Z,92501.06
2023-01-20T00:18:54.819Z,92515.78
2023-01-20T00:21:22.344Z,92506.75
2023-01-20T00:23:50.439Z,92521.75
2023-01-20T00:26:23.566Z,92533.13
2023-01-20T00:28:54.722Z,92530.09
2023-01-20T00:31:24.794Z,92476.94
2023-01-20T00:33:54.704Z,92481.34
2023-01-20T00:36:23.721Z,92425.28
2023-01-20T00:38:52.066Z,92343.66
2023-01-20T00:41:20.409Z,92340.53
2023-01-20T00:43:48.076Z,92340.69
2023-01-20T00:46:16.016Z,92359.53
2023-01-20T00:48:43.817Z,92349.19
2023-01-20T00:51:11.645Z,92355.50
2023-01-20T00:53:39.393Z,92350.91
2023-01-20T00:56:07.966Z,92344.31
2023-01-20T00:58:35.520Z,92332.00
2023-01-20T01:01:03.027Z,92332.31
2023-01-20T01:03:31.274Z,92315.12
2023-01-20T01:06:16.374Z,92325.44
2023-01-20T01:08:44.930Z,92303.03
2023-01-20T01:11:13.060Z,92311.09
2023-01-20T01:13:41.122Z,92309.06
2023-01-20T01:16:13.558Z,92294.72
2023-01-20T01:18:41.422Z,92278.47
2023-01-20T01:21:11.479Z,92283.91
2023-01-20T01:23:38.733Z,92279.50
2023-01-20T01:26:06.611Z,92278.56
2023-01-20T01:28:34.436Z,92268.66
2023-01-20T01:31:03.281Z,92265.06
2023-01-20T01:33:31.098Z,92253.81
2023-01-20T01:36:00.566Z,92261.06
2023-01-20T01:38:29.391Z,92268.06
2023-01-20T01:40:56.978Z,92255.59
2023-01-20T01:43:30.955Z,92259.97
2023-01-20T01:45:58.223Z,92268.16
2023-01-20T01:48:40.438Z,92274.81
2023-01-20T01:51:15.307Z,92269.09
2023-01-20T01:53:54.202Z,92274.69
2023-01-20T01:56:24.257Z,92271.13
2023-01-20T01:58:55.807Z,92266.34
2023-01-20T02:01:23.445Z,92262.47
2023-01-20T02:04:03.727Z,92255.75
2023-01-20T02:06:38.571Z,92276.16
2023-01-20T02:09:06.515Z,92268.22
2023-01-20T02:11:41.705Z,92259.25
2023-01-20T02:14:09.449Z,92268.41
2023-01-20T02:16:43.699Z,92256.44
2023-01-20T02:19:33.439Z,92266.09
2023-01-20T02:22:11.846Z,92247.22
2023-01-20T02:25:04.255Z,92238.56
2023-01-20T02:27:56.827Z,92231.47
2023-01-20T02:30:24.125Z,92222.06
2023-01-20T02:33:10.675Z,92207.66
2023-01-20T02:35:45.799Z,92206.56
2023-01-20T02:38:22.332Z,92196.63
2023-01-20T02:41:27.122Z,92205.59
2023-01-20T02:44:05.039Z,92201.50
2023-01-20T02:46:47.811Z,92195.78
2023-01-20T02:49:22.543Z,92190.41
2023-01-20T02:52:13.148Z,92186.16
2023-01-20T02:54:45.000Z,92176.88
2023-01-20T02:57:17.549Z,92177.03
2023-01-20T02:59:50.711Z,92180.56
2023-01-20T03:02:24.734Z,92178.50
2023-01-20T03:05:04.139Z,92197.09
2023-01-20T03:07:34.823Z,92198.69
2023-01-20T03:10:08.227Z,92199.84
2023-01-20T03:12:43.618Z,92201.22
2023-01-20T03:15:12.664Z,92204.91
2023-01-20T03:17:40.589Z,92204.34
2023-01-20T03:20:08.917Z,92208.06
2023-01-20T03:22:37.062Z,92199.06
2023-01-20T03:25:04.924Z,92193.75
2023-01-20T03:27:32.475Z,92192.28
2023-01-20T03:30:00.277Z,92180.87
2023-01-20T03:32:28.913Z,92179.66
2023-01-20T03:34:57.357Z,92182.38
2023-01-20T03:37:25.053Z,92187.56
2023-01-20T03:39:52.630Z,92175.53
2023-01-20T03:42:30.587Z,92170.97
2023-01-20T03:45:11.676Z,92166.28
2023-01-20T03:48:18.173Z,92155.56
2023-01-20T03:50:55.325Z,92162.94
2023-01-20T03:53:29.058Z,92167.88
2023-01-20T03:56:06.912Z,92159.03
2023-01-20T03:58:39.395Z,92151.72
2023-01-20T04:01:18.475Z,92150.69
2023-01-20T04:03:49.269Z,92148.63
2023-01-20T04:06:19.795Z,92142.87
2023-01-20T04:08:56.862Z,92134.00
2023-01-20T04:11:24.773Z,92131.34
2023-01-20T04:13:52.476Z,92145.47
2023-01-20T04:16:21.609Z,92133.44
2023-01-20T04:18:50.442Z,92133.38
2023-01-20T04:21:35.334Z,92116.53
2023-01-20T04:24:05.479Z,92102.38
2023-01-20T04:26:33.278Z,92100.81
2023-01-20T04:29:09.913Z,92093.28
2023-01-20T04:31:39.946Z,92100.06
2023-01-20T04:34:08.107Z,92086.34
2023-01-20T04:36:35.659Z,92076.19
2023-01-20T04:39:03.384Z,92083.16
2023-01-20T04:41:30.736Z,92095.13
2023-01-20T04:43:58.103Z,92093.59
2023-01-20T04:46:25.893Z,92088.34
2023-01-20T04:48:53.237Z,92099.75
2023-01-20T04:51:20.614Z,92092.34
2023-01-20T04:53:48.347Z,92086.94
2023-01-20T04:56:16.363Z,92065.78
2023-01-20T04:58:44.135Z,92067.69
2023-01-20T05:01:11.880Z,92066.56
2023-01-20T05:03:39.313Z,92067.88
2023-01-20T05:06:07.016Z,92065.44
2023-01-20T05:08:34.849Z,92063.75
2023-01-20T05:11:02.227Z,92068.69
2023-01-20T05:13:29.677Z,92070.53
2023-01-20T05:15:57.563Z,92073.87
2023-01-20T05:18:24.957Z,92082.78
2023-01-20T05:20:52.236Z,92087.72
2023-01-20T05:23:20.096Z,92104.50
2023-01-20T05:25:54.085Z,92118.44
2023-01-20T05:28:22.376Z,92120.53
2023-01-20T05:30:50.846Z,92121.22
2023-01-20T05:33:18.488Z,92131.94
2023-01-20T05:35:46.320Z,92132.56
2023-01-20T05:38:13.752Z,92131.47
2023-01-20T05:40:42.526Z,92126.59
2023-01-20T05:43:12.822Z,92138.16
2023-01-20T05:45:40.378Z,92152.28
2023-01-20T05:48:08.846Z,92158.25
2023-01-20T05:50:36.679Z,92171.66
2023-01-20T05:53:04.063Z,92167.56
2023-01-20T05:55:31.622Z,92154.19
2023-01-20T05:58:02.096Z,92146.88
2023-01-20T06:00:30.349Z,92146.22
2023-01-20T06:02:58.809Z,92156.00
2023-01-20T06:05:26.425Z,92168.81
2023-01-20T06:07:57.356Z,92171.72
2023-01-20T06:10:28.198Z,92166.06
2023-01-20T06:12:56.468Z,92159.56
2023-01-20T06:15:24.688Z,92155.22
2023-01-20T06:17:55.060Z,92153.34
2023-01-20T06:20:22.673Z,92153.91
2023-01-20T06:22:50.130Z,92166.53
2023-01-20T06:25:17.945Z,92163.03
2023-01-20T06:27:45.284Z,92159.28
2023-01-20T06:30:12.845Z,92158.03
2023-01-20T06:32:40.545Z,92141.47
2023-01-20T06:35:10.566Z,92123.72
2023-01-20T06:37:38.570Z,92087.41
2023-01-20T06:40:06.659Z,92125.13
2023-01-20T06:42:34.149Z,92155.25
2023-01-20T06:45:01.556Z,92156.03
2023-01-20T06:47:29.260Z,92166.44
2023-01-20T06:49:56.575Z,92160.06
2023-01-20T06:52:23.954Z,92163.09
2023-01-20T06:54:51.758Z,92145.25
2023-01-20T06:57:19.790Z,92132.28
2023-01-20T06:59:47.152Z,92131.31
2023-01-20T07:02:15.351Z,92140.22
2023-01-20T07:04:43.476Z,92114.13
2023-01-20T07:07:13.030Z,92147.28
2023-01-20T07:09:40.746Z,92143.81
2023-01-20T07:12:08.145Z,92116.03
2023-01-20T07:14:35.433Z,92124.22
2023-01-20T07:17:03.358Z,92117.38
2023-01-20T07:19:30.710Z,92114.31
2023-01-20T07:21:58.008Z,92113.94
2023-01-20T07:24:25.650Z,92106.34
2023-01-20T07:26:54.153Z,92117.56
2023-01-20T07:29:21.660Z,92103.72
2023-01-20T07:31:49.488Z,92091.28
2023-01-20T07:34:17.140Z,92096.84
2023-01-20T07:36:44.559Z,92087.25
2023-01-20T07:39:13.288Z,92079.94
2023-01-20T07:41:40.640Z,92081.63
2023-01-20T07:44:08.805Z,92087.72
2023-01-20T07:46:37.534Z,92092.69
2023-01-20T07:49:04.935Z,92104.09
2023-01-20T07:51:33.833Z,92120.44
2023-01-20T07:54:03.105Z,92122.13
2023-01-20T07:56:30.919Z,92117.41
2023-01-20T07:58:58.276Z,92132.81
2023-01-20T08:01:28.869Z,92154.97
2023-01-20T08:03:57.695Z,92150.37
2023-01-20T08:06:26.385Z,92142.50
2023-01-20T08:08:56.217Z,92153.50
2023-01-20T08:11:25.466Z,92146.88
2023-01-20T08:13:53.032Z,92137.13
2023-01-20T08:16:20.660Z,92120.75
2023-01-20T08:18:48.537Z,92086.09
2023-01-20T08:21:31.353Z,92077.69
2023-01-20T08:24:00.937Z,92066.69
2023-01-20T08:26:30.038Z,92057.75
2023-01-20T08:29:03.468Z,92058.34
2023-01-20T08:31:31.439Z,92058.31
2023-01-20T08:33:59.207Z,92060.47
2023-01-20T08:36:30.733Z,92056.06
2023-01-20T08:39:02.312Z,92060.34
2023-01-20T08:41:33.692Z,92061.97
2023-01-20T08:44:02.969Z,92067.59
2023-01-20T08:46:30.585Z,92059.69
2023-01-20T08:48:58.116Z,92059.31
2023-01-20T08:51:29.365Z,92063.03
2023-01-20T08:53:57.328Z,92061.78
2023-01-20T08:56:25.132Z,92056.12
2023-01-20T08:58:54.243Z,92056.19
2023-01-20T09:01:24.956Z,92045.66
2023-01-20T09:04:04.900Z,92046.94
2023-01-20T09:06:49.725Z,92058.66
2023-01-20T09:09:19.705Z,92049.53
2023-01-20T09:11:51.487Z,92055.69
2023-01-20T09:14:20.884Z,92050.56
2023-01-20T09:16:48.806Z,92051.81
2023-01-20T09:19:16.794Z,92049.34
2023-01-20T09:21:44.712Z,92042.75
2023-01-20T09:24:12.264Z,92040.69
2023-01-20T09:26:39.767Z,92045.47
2023-01-20T09:29:19.084Z,92042.88
2023-01-20T09:31:50.393Z,92036.72
2023-01-20T09:34:23.427Z,92037.44
2023-01-20T09:36:55.030Z,92032.75
2023-01-20T09:39:41.765Z,92023.09
2023-01-20T09:42:49.713Z,92024.62
2023-01-20T09:45:40.603Z,92020.81
2023-01-20T09:48:36.831Z,92009.03
2023-01-20T09:51:29.223Z,92004.56
2023-01-20T09:53:59.603Z,91999.22
2023-01-20T09:56:30.778Z,91989.28
2023-01-20T09:59:07.001Z,91986.75
2023-01-20T10:01:46.258Z,91982.59
2023-01-20T10:04:37.317Z,91987.25
2023-01-20T10:07:16.979Z,91988.78
2023-01-20T10:09:54.957Z,91968.37
2023-01-20T10:12:33.858Z,91942.22
2023-01-20T10:15:07.648Z,91919.25
2023-01-20T10:17:46.965Z,91912.72
2023-01-20T10:20:28.595Z,91919.31
2023-01-20T10:22:55.930Z,91923.25
2023-01-20T10:25:33.470Z,91911.44
2023-01-20T10:28:11.742Z,91908.16
2023-01-20T10:30:39.570Z,91919.63
2023-01-20T10:33:21.443Z,91927.41
2023-01-20T10:35:56.150Z,91926.22
2023-01-20T10:38:36.211Z,91927.69
2023-01-20T10:41:17.614Z,91926.44
2023-01-20T10:43:47.121Z,91921.97
2023-01-20T10:46:18.039Z,91929.81
2023-01-20T10:48:45.336Z,91932.22
2023-01-20T10:51:34.141Z,91933.50
2023-01-20T10:54:01.633Z,91935.34
2023-01-20T10:56:43.012Z,91918.34
2023-01-20T10:59:17.581Z,91906.63
2023-01-20T11:01:56.520Z,91894.09
2023-01-20T11:04:36.169Z,91888.59
2023-01-20T11:07:08.557Z,91899.56
2023-01-20T11:09:37.918Z,91897.44
2023-01-20T11:12:15.050Z,91898.53
2023-01-20T11:14:43.831Z,91902.69
2023-01-20T11:17:17.934Z,91895.38
2023-01-20T11:19:47.508Z,91907.37
2023-01-20T11:22:33.280Z,91897.19
2023-01-20T11:25:04.218Z,91911.56
2023-01-20T11:27:52.171Z,91912.09
2023-01-20T11:30:32.846Z,91889.91
2023-01-20T11:33:20.742Z,91896.66
2023-01-20T11:36:16.970Z,91887.53
2023-01-20T11:38:47.646Z,91893.53
2023-01-20T11:41:27.800Z,91902.94
2023-01-20T11:43:57.453Z,91914.69
2023-01-20T11:46:30.407Z,91915.22
2023-01-20T11:49:16.678Z,91931.91
2023-01-20T11:51:47.368Z,91931.91
2023-01-20T11:54:33.031Z,91916.78
2023-01-20T11:57:08.146Z,91934.00
2023-01-20T11:59:36.890Z,91955.38
2023-01-20T12:02:07.712Z,91975.13
2023-01-20T12:04:57.091Z,91963.84
2023-01-20T12:07:30.270Z,91965.78
2023-01-20T12:10:33.092Z,91966.59
2023-01-20T12:13:06.489Z,91973.47
2023-01-20T12:15:37.934Z,91973.28
2023-01-20T12:18:20.059Z,91964.03
2023-01-20T12:21:08.308Z,91977.28
2023-01-20T12:23:48.111Z,91979.84
2023-01-20T12:26:20.790Z,91996.28
2023-01-20T12:29:09.611Z,92004.19
2023-01-20T12:31:37.164Z,92004.38
2023-01-20T12:34:11.776Z,92016.31
2023-01-20T12:36:50.778Z,92015.44
2023-01-20T12:39:26.685Z,92021.78
2023-01-20T12:42:34.429Z,92019.06
2023-01-20T12:45:25.568Z,92023.72
2023-01-20T12:48:11.398Z,92017.69
2023-01-20T12:50:38.942Z,92011.38
2023-01-20T12:53:22.052Z,92009.41
2023-01-20T12:55:57.071Z,92004.16
2023-01-20T12:58:43.173Z,92002.56
2023-01-20T13:01:28.819Z,91998.94
2023-01-20T13:04:26.006Z,92012.00
2023-01-20T13:07:11.098Z,92010.97
2023-01-20T13:09:50.906Z,92013.72
2023-01-20T13:12:33.536Z,92026.13
2023-01-20T13:15:30.601Z,92026.03
2023-01-20T13:18:16.354Z,92026.69
2023-01-20T13:20:45.919Z,92025.75
2023-01-20T13:23:14.998Z,92023.91
2023-01-20T13:25:45.010Z,92010.84
2023-01-20T13:28:22.777Z,92013.94
2023-01-20T13:30:54.424Z,92010.06
2023-01-20T13:33:40.452Z,92008.63
2023-01-20T13:36:23.465Z,92010.66
2023-01-20T13:39:34.793Z,92010.38
2023-01-20T13:42:02.424Z,92014.97
2023-01-20T13:44:37.172Z,92040.16
2023-01-20T13:47:08.828Z,92058.09
2023-01-20T13:49:52.162Z,92071.69
2023-01-20T13:52:50.570Z,92083.03
2023-01-20T13:55:48.391Z,92092.97
2023-01-20T13:58:34.643Z,92102.09
2023-01-20T14:01:09.116Z,92105.94
2023-01-20T14:03:40.904Z,92117.38
2023-01-20T14:06:28.664Z,92113.88
2023-01-20T14:08:56.370Z,92107.22
2023-01-20T14:11:26.355Z,92124.59
2023-01-20T14:13:57.369Z,92128.37
2023-01-20T14:16:29.429Z,92141.81
2023-01-20T14:19:02.142Z,92140.63
2023-01-20T14:21:39.390Z,92129.06
2023-01-20T14:24:06.789Z,92140.31
2023-01-20T14:26:34.513Z,92144.88
2023-01-20T14:29:05.429Z,92151.72
2023-01-20T14:31:40.586Z,92149.44
2023-01-20T14:34:33.292Z,92157.84
2023-01-20T14:37:18.192Z,92142.84
2023-01-20T14:39:50.188Z,92154.62
2023-01-20T14:42:20.233Z,92150.63
2023-01-20T14:44:49.818Z,92153.06
2023-01-20T14:47:18.282Z,92156.31
2023-01-20T14:49:48.342Z,92165.34
2023-01-20T14:52:29.059Z,92164.31
2023-01-20T14:54:56.907Z,92173.00
2023-01-20T14:57:28.009Z,92175.91
2023-01-20T15:00:12.134Z,92176.38
2023-01-20T15:02:42.836Z,92185.44
2023-01-20T15:05:28.770Z,92175.00
2023-01-20T15:08:06.833Z,92180.37
2023-01-20T15:10:34.354Z,92184.31
2023-01-20T15:13:02.214Z,92190.91
2023-01-20T15:15:31.932Z,92188.16
2023-01-20T15:18:11.312Z,92191.22
2023-01-20T15:20:42.088Z,92194.75
2023-01-20T15:23:15.105Z,92209.53
2023-01-20T15:25:42.891Z,92205.09
2023-01-20T15:28:22.932Z,92205.13
2023-01-20T15:30:52.507Z,92203.34
2023-01-20T15:33:21.813Z,92221.34
2023-01-20T15:36:00.818Z,92229.56
2023-01-20T15:38:31.711Z,92239.38
2023-01-20T15:40:59.075Z,92251.84
2023-01-20T15:43:26.518Z,92254.34
2023-01-20T15:45:54.468Z,92254.41
2023-01-20T15:48:22.473Z,92263.72
2023-01-20T15:50:50.214Z,92279.13
2023-01-20T15:53:18.072Z,92292.28
2023-01-20T15:55:51.340Z,92288.69
2023-01-20T15:58:26.567Z,92294.44
2023-01-20T16:00:55.904Z,92304.63
2023-01-20T16:03:25.427Z,92312.97
2023-01-20T16:05:55.303Z,92305.75
2023-01-20T16:08:26.038Z,92315.53
2023-01-20T16:10:53.734Z,92321.75
2023-01-20T16:13:21.097Z,92327.50
2023-01-20T16:15:48.503Z,92335.19
2023-01-20T16:18:18.578Z,92328.97
2023-01-20T16:20:47.877Z,92329.84
2023-01-20T16:23:16.303Z,92327.00
2023-01-20T16:25:44.208Z,92324.78
2023-01-20T16:28:14.755Z,92338.06
2023-01-20T16:30:42.896Z,92336.16
2023-01-20T16:33:36.774Z,92343.53
2023-01-20T16:36:06.730Z,92345.00
2023-01-20T16:38:34.473Z,92346.91
2023-01-20T16:41:12.029Z,92349.75
2023-01-20T16:43:43.970Z,92361.75
2023-01-20T16:46:20.859Z,92366.41
2023-01-20T16:48:49.254Z,92363.16
2023-01-20T16:51:19.249Z,92363.69
2023-01-20T16:53:46.598Z,92363.34
2023-01-20T16:56:15.953Z,92367.06
2023-01-20T16:58:43.961Z,92374.06
2023-01-20T17:01:14.291Z,92384.28
2023-01-20T17:03:42.835Z,92379.28
2023-01-20T17:06:17.593Z,92400.16
2023-01-20T17:08:54.106Z,92408.28
2023-01-20T17:11:24.339Z,92408.69
2023-01-20T17:13:52.767Z,92411.41
2023-01-20T17:16:20.778Z,92410.25
2023-01-20T17:18:53.323Z,92411.25
2023-01-20T17:21:22.903Z,92416.59
2023-01-20T17:23:55.016Z,92415.44
2023-01-20T17:26:23.826Z,92415.78
2023-01-20T17:28:56.525Z,92426.88
2023-01-20T17:31:24.465Z,92429.22
2023-01-20T17:33:52.237Z,92418.88
2023-01-20T17:36:20.519Z,92429.47
2023-01-20T17:38:48.246Z,92433.41
2023-01-20T17:41:15.877Z,92438.91
2023-01-20T17:43:46.737Z,92431.28
2023-01-20T17:46:19.260Z,92436.41
2023-01-20T17:48:47.575Z,92430.69
2023-01-20T17:51:18.218Z,92430.75
2023-01-20T17:53:45.809Z,92441.09
2023-01-20T17:56:14.314Z,92423.63
2023-01-20T17:58:43.732Z,92438.22
2023-01-20T18:01:21.812Z,92450.75
2023-01-20T18:03:52.501Z,92454.34
2023-01-20T18:06:21.483Z,92450.81
2023-01-20T18:09:10.399Z,92451.31
2023-01-20T18:11:39.096Z,92473.19
2023-01-20T18:14:07.580Z,92463.81
2023-01-20T18:16:37.374Z,92461.50
2023-01-20T18:19:05.527Z,92477.63
2023-01-20T18:21:37.839Z,92472.31
2023-01-20T18:24:10.221Z,92481.13
2023-01-20T18:26:42.641Z,92477.84
2023-01-20T18:29:16.631Z,92482.88
2023-01-20T18:31:47.893Z,92486.00
2023-01-20T18:34:16.017Z,92486.09
2023-01-20T18:36:46.377Z,92495.25
2023-01-20T18:39:17.679Z,92504.81
2023-01-20T18:41:46.520Z,92496.16
2023-01-20T18:44:14.083Z,92496.66
2023-01-20T18:46:41.969Z,92508.06
2023-01-20T18:49:13.617Z,92508.75
2023-01-20T18:51:46.617Z,92508.47
2023-01-20T18:54:23.064Z,92509.56
2023-01-20T18:56:50.493Z,92521.56
2023-01-20T18:59:20.861Z,92529.84
2023-01-20T19:01:48.715Z,92527.91
2023-01-20T19:04:16.198Z,92524.16
2023-01-20T19:06:45.540Z,92535.09
2023-01-20T19:09:13.168Z,92540.06
2023-01-20T19:11:42.117Z,92538.19
2023-01-20T19:14:13.994Z,92543.59
2023-01-20T19:16:45.559Z,92549.28
2023-01-20T19:19:13.918Z,92552.94
2023-01-20T19:21:41.417Z,92553.66
2023-01-20T19:24:14.320Z,92559.25
2023-01-20T19:26:42.034Z,92567.91
2023-01-20T19:29:12.938Z,92554.78
2023-01-20T19:31:40.638Z,92561.00
2023-01-20T19:34:10.159Z,92568.69
2023-01-20T19:36:37.817Z,92578.47
2023-01-20T19:39:05.988Z,92596.53
2023-01-20T19:41:36.254Z,92597.97
2023-01-20T19:44:06.827Z,92607.59
2023-01-20T19:46:37.250Z,92599.38
2023-01-20T19:49:04.802Z,92605.59
2023-01-20T19:51:32.303Z,92611.84
2023-01-20T19:54:01.546Z,92615.75
2023-01-20T19:56:31.176Z,92623.31
2023-01-20T19:59:00.940Z,92639.59
2023-01-20T20:01:31.857Z,92636.72
2023-01-20T20:04:05.732Z,92635.47
2023-01-20T20:06:48.573Z,92630.34
2023-01-20T20:09:23.555Z,92626.91
2023-01-20T20:11:51.032Z,92627.22
2023-01-20T20:14:20.835Z,92625.94
2023-01-20T20:16:49.123Z,92636.06
2023-01-20T20:19:19.458Z,92640.66
2023-01-20T20:21:47.629Z,92644.91
2023-01-20T20:24:16.976Z,92639.34
2023-01-20T20:26:46.432Z,92640.88
2023-01-20T20:29:16.276Z,92648.22
2023-01-20T20:31:43.902Z,92646.28
2023-01-20T20:34:14.554Z,92634.25
2023-01-20T20:36:42.617Z,92628.06
2023-01-20T20:39:14.857Z,92624.25
2023-01-20T20:41:43.155Z,92632.25
2023-01-20T20:44:11.593Z,92632.50
2023-01-20T20:46:39.061Z,92640.38
2023-01-20T20:49:06.900Z,92648.00
2023-01-20T20:51:35.020Z,92645.91
2023-01-20T20:54:03.300Z,92654.41
2023-01-20T20:56:32.060Z,92658.81
2023-01-20T20:59:02.796Z,92657.47
2023-01-20T21:01:33.540Z,92670.31
2023-01-20T21:04:02.264Z,92673.69
2023-01-20T21:06:30.290Z,92683.72
2023-01-20T21:08:59.011Z,92683.44
2023-01-20T21:11:26.600Z,92682.66
2023-01-20T21:13:54.348Z,92677.91
2023-01-20T21:16:23.587Z,92686.03
2023-01-20T21:18:53.218Z,92684.25
2023-01-20T21:21:20.498Z,92688.16
2023-01-20T21:23:58.970Z,92694.13
2023-01-20T21:26:30.612Z,92697.97
2023-01-20T21:29:02.280Z,92699.41
2023-01-20T21:31:31.635Z,92698.13
2023-01-20T21:34:00.855Z,92692.03
2023-01-20T21:36:30.055Z,92685.25
2023-01-20T21:38:58.869Z,92688.22
2023-01-20T21:41:26.819Z,92686.66
2023-01-20T21:44:12.716Z,92693.25
2023-01-20T21:46:40.879Z,92701.84
2023-01-20T21:49:27.723Z,92694.97
2023-01-20T21:52:15.718Z,92697.47
2023-01-20T21:54:45.371Z,92692.53
2023-01-20T21:57:14.725Z,92686.84
2023-01-20T21:59:43.209Z,92681.88
2023-01-20T22:02:13.446Z,92681.50
2023-01-20T22:04:41.682Z,92682.59
2023-01-20T22:07:09.445Z,92692.94
2023-01-20T22:09:38.459Z,92703.50
2023-01-20T22:12:06.388Z,92698.97
2023-01-20T22:14:33.978Z,92715.75
2023-01-20T22:17:01.639Z,92711.34
2023-01-20T22:19:29.313Z,92709.34
2023-01-20T22:21:57.046Z,92715.69
2023-01-20T22:24:24.385Z,92712.72
2023-01-20T22:26:52.260Z,92710.12
2023-01-20T22:29:19.852Z,92697.78
2023-01-20T22:31:47.562Z,92702.13
2023-01-20T22:34:15.192Z,92702.53
2023-01-20T22:36:42.502Z,92711.00
2023-01-20T22:39:12.059Z,92720.56
2023-01-20T22:41:40.430Z,92730.31
2023-01-20T22:44:08.393Z,92736.63
2023-01-20T22:46:35.753Z,92731.88
2023-01-20T22:49:03.654Z,92732.22
2023-01-20T22:51:31.507Z,92737.87
2023-01-20T22:54:01.100Z,92730.09
2023-01-20T22:56:31.188Z,92723.94
2023-01-20T22:58:59.706Z,92735.56
2023-01-20T23:01:30.685Z,92736.13
2023-01-20T23:04:00.917Z,92736.13
2023-01-20T23:06:30.755Z,92741.69
2023-01-20T23:09:00.033Z,92747.88
2023-01-20T23:11:27.771Z,92746.69
2023-01-20T23:13:55.260Z,92750.66
2023-01-20T23:16:23.422Z,92750.25
2023-01-20T23:18:51.827Z,92751.41
2023-01-20T23:21:20.415Z,92753.81
2023-01-20T23:23:54.797Z,92747.03
2023-01-20T23:26:25.227Z,92747.81
2023-01-20T23:28:54.071Z,92744.63
2023-01-20T23:31:23.147Z,92738.94
2023-01-20T23:33:50.953Z,92744.66
2023-01-20T23:36:22.072Z,92732.97
2023-01-20T23:38:49.361Z,92734.75
2023-01-20T23:41:16.804Z,92736.53
2023-01-20T23:43:44.400Z,92736.16
2023-01-20T23:46:12.081Z,92728.56
2023-01-20T23:48:39.501Z,92733.69
2023-01-20T23:51:07.660Z,92737.66
2023-01-20T23:53:37.829Z,92737.09
2023-01-20T23:56:08.208Z,92724.72
2023-01-20T23:58:35.915Z,92734.47
